sensor_id;sensor_type;location;lat;lon;timestamp;P1;durP1;ratioP1;P2;durP2;ratioP2
73599;SDS011;61877;48.246;9.220;2023-02-03T00:01:33;7.00;;;3.10;;
73599;SDS011;61877;48.246;9.220;2023-02-03T00:04:00;7.23;;;3.00;;
73599;SDS011;61877;48.246;9.220;2023-02-03T00:06:26;5.70;;;2.90;;
73599;SDS011;61877;48.246;9.220;2023-02-03T00:08:52;6.00;;;2.95;;
73599;SDS011;61877;48.246;9.220;2023-02-03T00:11:19;7.13;;;3.40;;
73599;SDS011;61877;48.246;9.220;2023-02-03T00:13:45;6.40;;;2.90;;
73599;SDS011;61877;48.246;9.220;2023-02-03T00:16:10;7.07;;;2.77;;
73599;SDS011;61877;48.246;9.220;2023-02-03T00:18:35;7.97;;;3.10;;
73599;SDS011;61877;48.246;9.220;2023-02-03T00:21:02;6.73;;;2.73;;
73599;SDS011;61877;48.246;9.220;2023-02-03T00:23:28;6.50;;;2.70;;
73599;SDS011;61877;48.246;9.220;2023-02-03T00:25:53;6.00;;;2.70;;
73599;SDS011;61877;48.246;9.220;2023-02-03T00:28:19;6.50;;;2.93;;
73599;SDS011;61877;48.246;9.220;2023-02-03T00:30:44;5.83;;;2.83;;
73599;SDS011;61877;48.246;9.220;2023-02-03T00:33:09;6.07;;;2.70;;
73599;SDS011;61877;48.246;9.220;2023-02-03T00:35:36;5.80;;;2.55;;
73599;SDS011;61877;48.246;9.220;2023-02-03T00:38:03;6.07;;;3.03;;
73599;SDS011;61877;48.246;9.220;2023-02-03T00:40:29;5.40;;;2.25;;
73599;SDS011;61877;48.246;9.220;2023-02-03T00:42:54;6.40;;;2.80;;
73599;SDS011;61877;48.246;9.220;2023-02-03T00:45:20;7.05;;;2.83;;
73599;SDS011;61877;48.246;9.220;2023-02-03T00:47:45;6.90;;;3.00;;
73599;SDS011;61877;48.246;9.220;2023-02-03T00:50:11;6.90;;;2.80;;
73599;SDS011;61877;48.246;9.220;2023-02-03T00:52:36;5.45;;;2.30;;
73599;SDS011;61877;48.246;9.220;2023-02-03T00:55:04;6.33;;;3.00;;
73599;SDS011;61877;48.246;9.220;2023-02-03T00:57:30;6.05;;;2.92;;
73599;SDS011;61877;48.246;9.220;2023-02-03T00:59:55;6.23;;;2.70;;
73599;SDS011;61877;48.246;9.220;2023-02-03T01:02:21;5.47;;;2.70;;
73599;SDS011;61877;48.246;9.220;2023-02-03T01:04:47;6.27;;;2.60;;
73599;SDS011;61877;48.246;9.220;2023-02-03T01:07:12;5.60;;;2.70;;
73599;SDS011;61877;48.246;9.220;2023-02-03T01:09:38;5.20;;;2.20;;
73599;SDS011;61877;48.246;9.220;2023-02-03T01:12:05;5.57;;;2.47;;
73599;SDS011;61877;48.246;9.220;2023-02-03T01:14:31;6.43;;;2.90;;
73599;SDS011;61877;48.246;9.220;2023-02-03T01:16:57;8.40;;;3.20;;
73599;SDS011;61877;48.246;9.220;2023-02-03T01:19:22;6.70;;;2.70;;
73599;SDS011;61877;48.246;9.220;2023-02-03T01:21:48;5.82;;;2.53;;
73599;SDS011;61877;48.246;9.220;2023-02-03T01:24:13;6.30;;;2.30;;
73599;SDS011;61877;48.246;9.220;2023-02-03T01:26:39;6.67;;;2.87;;
73599;SDS011;61877;48.246;9.220;2023-02-03T01:29:06;6.43;;;2.78;;
73599;SDS011;61877;48.246;9.220;2023-02-03T01:31:33;5.70;;;2.53;;
73599;SDS011;61877;48.246;9.220;2023-02-03T01:34:00;6.70;;;2.50;;
73599;SDS011;61877;48.246;9.220;2023-02-03T01:36:27;5.95;;;2.58;;
73599;SDS011;61877;48.246;9.220;2023-02-03T01:38:54;7.25;;;2.50;;
73599;SDS011;61877;48.246;9.220;2023-02-03T01:41:20;7.15;;;2.50;;
73599;SDS011;61877;48.246;9.220;2023-02-03T01:43:49;5.87;;;2.67;;
73599;SDS011;61877;48.246;9.220;2023-02-03T01:46:20;5.30;;;2.30;;
73599;SDS011;61877;48.246;9.220;2023-02-03T01:48:49;5.88;;;2.80;;
73599;SDS011;61877;48.246;9.220;2023-02-03T01:51:20;5.60;;;2.60;;
73599;SDS011;61877;48.246;9.220;2023-02-03T01:53:46;6.25;;;3.00;;
73599;SDS011;61877;48.246;9.220;2023-02-03T01:56:12;5.73;;;2.50;;
73599;SDS011;61877;48.246;9.220;2023-02-03T01:58:38;5.85;;;2.42;;
73599;SDS011;61877;48.246;9.220;2023-02-03T02:01:05;6.70;;;2.97;;
73599;SDS011;61877;48.246;9.220;2023-02-03T02:03:35;6.07;;;2.50;;
73599;SDS011;61877;48.246;9.220;2023-02-03T02:06:04;5.80;;;2.45;;
73599;SDS011;61877;48.246;9.220;2023-02-03T02:08:30;6.30;;;2.50;;
73599;SDS011;61877;48.246;9.220;2023-02-03T02:10:56;5.97;;;2.60;;
73599;SDS011;61877;48.246;9.220;2023-02-03T02:13:23;6.23;;;2.60;;
73599;SDS011;61877;48.246;9.220;2023-02-03T02:15:50;5.78;;;2.58;;
73599;SDS011;61877;48.246;9.220;2023-02-03T02:18:23;5.82;;;2.58;;
73599;SDS011;61877;48.246;9.220;2023-02-03T02:21:04;6.13;;;2.60;;
73599;SDS011;61877;48.246;9.220;2023-02-03T02:24:10;5.90;;;2.70;;
73599;SDS011;61877;48.246;9.220;2023-02-03T02:26:51;6.43;;;2.70;;
73599;SDS011;61877;48.246;9.220;2023-02-03T02:32:28;6.30;;;2.28;;
73599;SDS011;61877;48.246;9.220;2023-02-03T02:35:03;5.90;;;2.25;;
73599;SDS011;61877;48.246;9.220;2023-02-03T02:37:42;6.47;;;2.30;;
73599;SDS011;61877;48.246;9.220;2023-02-03T02:40:14;7.30;;;2.70;;
73599;SDS011;61877;48.246;9.220;2023-02-03T02:42:50;6.95;;;2.60;;
73599;SDS011;61877;48.246;9.220;2023-02-03T02:45:25;5.50;;;2.40;;
73599;SDS011;61877;48.246;9.220;2023-02-03T02:47:56;5.82;;;2.80;;
73599;SDS011;61877;48.246;9.220;2023-02-03T02:50:27;6.13;;;2.75;;
73599;SDS011;61877;48.246;9.220;2023-02-03T02:52:57;5.80;;;2.53;;
73599;SDS011;61877;48.246;9.220;2023-02-03T02:55:25;6.10;;;2.20;;
73599;SDS011;61877;48.246;9.220;2023-02-03T02:57:55;5.78;;;2.40;;
73599;SDS011;61877;48.246;9.220;2023-02-03T03:00:23;5.97;;;2.40;;
73599;SDS011;61877;48.246;9.220;2023-02-03T03:02:49;5.60;;;2.50;;
73599;SDS011;61877;48.246;9.220;2023-02-03T03:05:15;5.70;;;2.50;;
73599;SDS011;61877;48.246;9.220;2023-02-03T03:07:44;6.00;;;2.42;;
73599;SDS011;61877;48.246;9.220;2023-02-03T03:13:35;5.60;;;2.40;;
73599;SDS011;61877;48.246;9.220;2023-02-03T03:16:08;5.90;;;2.33;;
73599;SDS011;61877;48.246;9.220;2023-02-03T03:18:36;5.75;;;2.33;;
73599;SDS011;61877;48.246;9.220;2023-02-03T03:21:13;6.47;;;2.45;;
73599;SDS011;61877;48.246;9.220;2023-02-03T03:23:45;5.45;;;2.30;;
73599;SDS011;61877;48.246;9.220;2023-02-03T03:26:26;5.85;;;2.13;;
73599;SDS011;61877;48.246;9.220;2023-02-03T03:28:59;5.93;;;2.50;;
73599;SDS011;61877;48.246;9.220;2023-02-03T03:31:41;5.85;;;2.30;;
73599;SDS011;61877;48.246;9.220;2023-02-03T03:34:11;5.75;;;2.67;;
73599;SDS011;61877;48.246;9.220;2023-02-03T03:43:03;6.10;;;2.60;;
73599;SDS011;61877;48.246;9.220;2023-02-03T03:53:12;5.70;;;2.58;;
73599;SDS011;61877;48.246;9.220;2023-02-03T03:55:40;5.57;;;2.47;;
73599;SDS011;61877;48.246;9.220;2023-02-03T03:58:11;5.53;;;2.40;;
73599;SDS011;61877;48.246;9.220;2023-02-03T04:00:42;5.57;;;2.55;;
73599;SDS011;61877;48.246;9.220;2023-02-03T04:03:10;5.70;;;2.05;;
73599;SDS011;61877;48.246;9.220;2023-02-03T04:05:38;5.40;;;2.40;;
73599;SDS011;61877;48.246;9.220;2023-02-03T04:08:06;5.23;;;2.13;;
73599;SDS011;61877;48.246;9.220;2023-02-03T04:10:36;7.80;;;2.92;;
73599;SDS011;61877;48.246;9.220;2023-02-03T04:13:03;5.93;;;2.78;;
73599;SDS011;61877;48.246;9.220;2023-02-03T04:15:29;5.43;;;2.35;;
73599;SDS011;61877;48.246;9.220;2023-02-03T04:17:55;5.38;;;2.10;;
73599;SDS011;61877;48.246;9.220;2023-02-03T04:20:21;5.67;;;2.20;;
73599;SDS011;61877;48.246;9.220;2023-02-03T04:22:47;5.57;;;2.20;;
73599;SDS011;61877;48.246;9.220;2023-02-03T04:25:12;5.50;;;2.27;;
73599;SDS011;61877;48.246;9.220;2023-02-03T04:27:39;5.50;;;2.60;;
73599;SDS011;61877;48.246;9.220;2023-02-03T04:30:06;5.93;;;2.50;;
73599;SDS011;61877;48.246;9.220;2023-02-03T04:32:46;5.63;;;2.20;;
73599;SDS011;61877;48.246;9.220;2023-02-03T04:35:12;5.30;;;2.30;;
73599;SDS011;61877;48.246;9.220;2023-02-03T04:37:40;5.68;;;2.13;;
73599;SDS011;61877;48.246;9.220;2023-02-03T04:40:06;5.43;;;2.00;;
73599;SDS011;61877;48.246;9.220;2023-02-03T04:42:35;6.70;;;2.10;;
73599;SDS011;61877;48.246;9.220;2023-02-03T04:45:02;5.50;;;2.40;;
73599;SDS011;61877;48.246;9.220;2023-02-03T04:47:28;5.60;;;2.47;;
73599;SDS011;61877;48.246;9.220;2023-02-03T04:49:53;5.80;;;2.13;;
73599;SDS011;61877;48.246;9.220;2023-02-03T04:52:19;5.27;;;2.20;;
73599;SDS011;61877;48.246;9.220;2023-02-03T04:54:44;6.37;;;2.33;;
73599;SDS011;61877;48.246;9.220;2023-02-03T04:57:10;5.50;;;2.20;;
73599;SDS011;61877;48.246;9.220;2023-02-03T04:59:35;5.70;;;2.60;;
73599;SDS011;61877;48.246;9.220;2023-02-03T05:02:02;6.20;;;2.67;;
73599;SDS011;61877;48.246;9.220;2023-02-03T05:04:28;6.20;;;2.45;;
73599;SDS011;61877;48.246;9.220;2023-02-03T05:06:53;5.73;;;2.33;;
73599;SDS011;61877;48.246;9.220;2023-02-03T05:09:19;5.60;;;2.20;;
73599;SDS011;61877;48.246;9.220;2023-02-03T05:11:44;6.67;;;2.57;;
73599;SDS011;61877;48.246;9.220;2023-02-03T05:14:10;6.27;;;2.60;;
73599;SDS011;61877;48.246;9.220;2023-02-03T05:16:35;6.23;;;2.60;;
73599;SDS011;61877;48.246;9.220;2023-02-03T05:19:02;7.65;;;3.15;;
73599;SDS011;61877;48.246;9.220;2023-02-03T05:21:27;6.67;;;2.80;;
73599;SDS011;61877;48.246;9.220;2023-02-03T05:23:53;6.18;;;2.90;;
73599;SDS011;61877;48.246;9.220;2023-02-03T05:26:18;14.63;;;6.13;;
73599;SDS011;61877;48.246;9.220;2023-02-03T05:28:44;13.60;;;6.20;;
73599;SDS011;61877;48.246;9.220;2023-02-03T05:31:09;9.57;;;4.70;;
73599;SDS011;61877;48.246;9.220;2023-02-03T05:33:35;19.70;;;7.20;;
73599;SDS011;61877;48.246;9.220;2023-02-03T05:36:02;11.70;;;4.63;;
73599;SDS011;61877;48.246;9.220;2023-02-03T05:38:27;7.30;;;3.10;;
73599;SDS011;61877;48.246;9.220;2023-02-03T05:40:53;6.80;;;2.90;;
73599;SDS011;61877;48.246;9.220;2023-02-03T05:43:18;8.97;;;4.07;;
73599;SDS011;61877;48.246;9.220;2023-02-03T05:45:44;7.35;;;3.38;;
73599;SDS011;61877;48.246;9.220;2023-02-03T05:48:10;7.03;;;3.10;;
73599;SDS011;61877;48.246;9.220;2023-02-03T05:50:35;8.25;;;3.90;;
73599;SDS011;61877;48.246;9.220;2023-02-03T05:53:03;8.43;;;3.60;;
73599;SDS011;61877;48.246;9.220;2023-02-03T05:55:30;11.27;;;5.07;;
73599;SDS011;61877;48.246;9.220;2023-02-03T05:57:56;7.68;;;3.72;;
73599;SDS011;61877;48.246;9.220;2023-02-03T06:00:22;12.18;;;5.32;;
73599;SDS011;61877;48.246;9.220;2023-02-03T06:02:50;8.73;;;3.63;;
73599;SDS011;61877;48.246;9.220;2023-02-03T06:05:15;11.07;;;4.13;;
73599;SDS011;61877;48.246;9.220;2023-02-03T06:07:41;10.23;;;4.63;;
73599;SDS011;61877;48.246;9.220;2023-02-03T06:10:08;8.65;;;3.10;;
73599;SDS011;61877;48.246;9.220;2023-02-03T06:12:34;9.20;;;3.70;;
73599;SDS011;61877;48.246;9.220;2023-02-03T06:15:01;16.43;;;6.97;;
73599;SDS011;61877;48.246;9.220;2023-02-03T06:17:27;13.30;;;5.82;;
73599;SDS011;61877;48.246;9.220;2023-02-03T06:19:52;14.87;;;6.70;;
73599;SDS011;61877;48.246;9.220;2023-02-03T06:22:18;13.18;;;5.70;;
73599;SDS011;61877;48.246;9.220;2023-02-03T06:24:45;10.57;;;4.73;;
73599;SDS011;61877;48.246;9.220;2023-02-03T06:27:12;14.05;;;6.50;;
73599;SDS011;61877;48.246;9.220;2023-02-03T06:29:38;7.73;;;3.50;;
73599;SDS011;61877;48.246;9.220;2023-02-03T06:32:04;6.65;;;2.95;;
73599;SDS011;61877;48.246;9.220;2023-02-03T06:34:30;9.73;;;4.50;;
73599;SDS011;61877;48.246;9.220;2023-02-03T06:36:56;7.43;;;3.17;;
73599;SDS011;61877;48.246;9.220;2023-02-03T06:39:21;6.27;;;2.73;;
73599;SDS011;61877;48.246;9.220;2023-02-03T06:41:46;7.47;;;3.60;;
73599;SDS011;61877;48.246;9.220;2023-02-03T06:44:13;7.65;;;3.47;;
73599;SDS011;61877;48.246;9.220;2023-02-03T06:46:39;8.23;;;3.50;;
73599;SDS011;61877;48.246;9.220;2023-02-03T06:49:05;8.35;;;3.80;;
73599;SDS011;61877;48.246;9.220;2023-02-03T06:51:30;8.47;;;3.80;;
73599;SDS011;61877;48.246;9.220;2023-02-03T06:53:56;7.82;;;3.88;;
73599;SDS011;61877;48.246;9.220;2023-02-03T06:56:21;9.13;;;3.93;;
73599;SDS011;61877;48.246;9.220;2023-02-03T06:58:46;10.23;;;4.13;;
73599;SDS011;61877;48.246;9.220;2023-02-03T07:01:13;8.13;;;3.70;;
73599;SDS011;61877;48.246;9.220;2023-02-03T07:03:39;8.18;;;3.55;;
73599;SDS011;61877;48.246;9.220;2023-02-03T07:06:04;7.27;;;3.30;;
73599;SDS011;61877;48.246;9.220;2023-02-03T07:08:30;7.67;;;3.40;;
73599;SDS011;61877;48.246;9.220;2023-02-03T07:10:56;7.78;;;3.67;;
73599;SDS011;61877;48.246;9.220;2023-02-03T07:13:21;8.40;;;4.00;;
73599;SDS011;61877;48.246;9.220;2023-02-03T07:15:47;8.07;;;3.93;;
73599;SDS011;61877;48.246;9.220;2023-02-03T07:18:14;8.70;;;4.17;;
73599;SDS011;61877;48.246;9.220;2023-02-03T07:20:39;9.18;;;4.38;;
73599;SDS011;61877;48.246;9.220;2023-02-03T07:23:04;10.18;;;4.03;;
73599;SDS011;61877;48.246;9.220;2023-02-03T07:25:30;8.63;;;4.20;;
73599;SDS011;61877;48.246;9.220;2023-02-03T07:27:55;8.73;;;4.00;;
73599;SDS011;61877;48.246;9.220;2023-02-03T07:30:21;8.63;;;4.00;;
73599;SDS011;61877;48.246;9.220;2023-02-03T07:32:47;8.17;;;3.57;;
73599;SDS011;61877;48.246;9.220;2023-02-03T07:35:14;8.18;;;3.78;;
73599;SDS011;61877;48.246;9.220;2023-02-03T07:37:43;7.60;;;3.85;;
73599;SDS011;61877;48.246;9.220;2023-02-03T07:40:09;10.80;;;4.10;;
73599;SDS011;61877;48.246;9.220;2023-02-03T07:42:37;8.40;;;3.67;;
73599;SDS011;61877;48.246;9.220;2023-02-03T07:45:05;9.23;;;4.10;;
73599;SDS011;61877;48.246;9.220;2023-02-03T07:47:31;8.68;;;4.10;;
73599;SDS011;61877;48.246;9.220;2023-02-03T07:49:56;9.70;;;3.93;;
73599;SDS011;61877;48.246;9.220;2023-02-03T07:52:23;9.63;;;4.10;;
73599;SDS011;61877;48.246;9.220;2023-02-03T07:54:54;9.80;;;4.70;;
73599;SDS011;61877;48.246;9.220;2023-02-03T07:57:20;9.27;;;4.45;;
73599;SDS011;61877;48.246;9.220;2023-02-03T07:59:45;8.53;;;4.00;;
73599;SDS011;61877;48.246;9.220;2023-02-03T08:02:11;10.85;;;4.80;;
73599;SDS011;61877;48.246;9.220;2023-02-03T08:04:36;8.67;;;3.77;;
73599;SDS011;61877;48.246;9.220;2023-02-03T08:07:02;7.70;;;3.50;;
73599;SDS011;61877;48.246;9.220;2023-02-03T08:09:31;7.82;;;3.88;;
73599;SDS011;61877;48.246;9.220;2023-02-03T08:11:56;7.95;;;3.85;;
73599;SDS011;61877;48.246;9.220;2023-02-03T08:14:22;8.60;;;3.70;;
73599;SDS011;61877;48.246;9.220;2023-02-03T08:16:47;7.60;;;3.70;;
73599;SDS011;61877;48.246;9.220;2023-02-03T08:19:18;7.70;;;3.57;;
73599;SDS011;61877;48.246;9.220;2023-02-03T08:21:44;7.20;;;3.40;;
73599;SDS011;61877;48.246;9.220;2023-02-03T08:24:09;7.93;;;3.47;;
73599;SDS011;61877;48.246;9.220;2023-02-03T08:26:36;7.93;;;3.60;;
73599;SDS011;61877;48.246;9.220;2023-02-03T08:29:02;8.48;;;3.80;;
73599;SDS011;61877;48.246;9.220;2023-02-03T08:31:28;7.38;;;3.33;;
73599;SDS011;61877;48.246;9.220;2023-02-03T08:33:53;7.23;;;3.30;;
73599;SDS011;61877;48.246;9.220;2023-02-03T08:36:19;8.20;;;3.83;;
73599;SDS011;61877;48.246;9.220;2023-02-03T08:38:44;8.35;;;3.10;;
73599;SDS011;61877;48.246;9.220;2023-02-03T08:41:10;7.30;;;3.50;;
73599;SDS011;61877;48.246;9.220;2023-02-03T08:43:38;10.82;;;5.03;;
73599;SDS011;61877;48.246;9.220;2023-02-03T08:46:04;8.30;;;3.45;;
73599;SDS011;61877;48.246;9.220;2023-02-03T08:48:30;8.52;;;3.63;;
73599;SDS011;61877;48.246;9.220;2023-02-03T08:50:56;9.67;;;3.90;;
73599;SDS011;61877;48.246;9.220;2023-02-03T08:53:21;8.90;;;3.53;;
73599;SDS011;61877;48.246;9.220;2023-02-03T08:55:47;7.57;;;3.10;;
73599;SDS011;61877;48.246;9.220;2023-02-03T08:58:13;8.30;;;3.23;;
73599;SDS011;61877;48.246;9.220;2023-02-03T09:00:40;10.13;;;4.15;;
73599;SDS011;61877;48.246;9.220;2023-02-03T09:03:06;7.90;;;3.72;;
73599;SDS011;61877;48.246;9.220;2023-02-03T09:05:31;14.80;;;6.00;;
73599;SDS011;61877;48.246;9.220;2023-02-03T09:07:57;12.13;;;4.50;;
73599;SDS011;61877;48.246;9.220;2023-02-03T09:10:23;8.20;;;3.40;;
73599;SDS011;61877;48.246;9.220;2023-02-03T09:12:51;7.97;;;3.60;;
73599;SDS011;61877;48.246;9.220;2023-02-03T09:15:17;6.97;;;3.38;;
73599;SDS011;61877;48.246;9.220;2023-02-03T09:17:49;6.65;;;3.13;;
73599;SDS011;61877;48.246;9.220;2023-02-03T09:20:19;7.25;;;3.28;;
73599;SDS011;61877;48.246;9.220;2023-02-03T09:22:45;6.68;;;3.22;;
73599;SDS011;61877;48.246;9.220;2023-02-03T09:25:10;6.93;;;3.40;;
73599;SDS011;61877;48.246;9.220;2023-02-03T09:27:36;7.00;;;2.90;;
73599;SDS011;61877;48.246;9.220;2023-02-03T09:30:01;8.20;;;3.70;;
73599;SDS011;61877;48.246;9.220;2023-02-03T09:32:27;7.10;;;3.07;;
73599;SDS011;61877;48.246;9.220;2023-02-03T09:34:54;8.47;;;3.30;;
73599;SDS011;61877;48.246;9.220;2023-02-03T09:37:19;7.35;;;2.85;;
73599;SDS011;61877;48.246;9.220;2023-02-03T09:39:45;6.70;;;2.47;;
73599;SDS011;61877;48.246;9.220;2023-02-03T09:45:19;7.27;;;2.87;;
73599;SDS011;61877;48.246;9.220;2023-02-03T09:47:49;5.57;;;2.10;;
73599;SDS011;61877;48.246;9.220;2023-02-03T09:50:19;6.00;;;2.40;;
73599;SDS011;61877;48.246;9.220;2023-02-03T09:52:46;5.38;;;2.40;;
73599;SDS011;61877;48.246;9.220;2023-02-03T09:55:18;7.00;;;2.47;;
73599;SDS011;61877;48.246;9.220;2023-02-03T09:57:55;5.93;;;2.40;;
73599;SDS011;61877;48.246;9.220;2023-02-03T10:00:29;5.63;;;2.45;;
73599;SDS011;61877;48.246;9.220;2023-02-03T10:03:01;5.75;;;2.40;;
73599;SDS011;61877;48.246;9.220;2023-02-03T10:05:39;5.60;;;2.40;;
73599;SDS011;61877;48.246;9.220;2023-02-03T10:08:14;6.85;;;2.60;;
73599;SDS011;61877;48.246;9.220;2023-02-03T10:10:52;5.90;;;2.43;;
73599;SDS011;61877;48.246;9.220;2023-02-03T10:13:28;5.57;;;2.30;;
73599;SDS011;61877;48.246;9.220;2023-02-03T10:16:08;6.13;;;2.40;;
73599;SDS011;61877;48.246;9.220;2023-02-03T10:18:46;5.68;;;2.72;;
73599;SDS011;61877;48.246;9.220;2023-02-03T10:21:20;6.97;;;2.60;;
73599;SDS011;61877;48.246;9.220;2023-02-03T10:23:59;6.10;;;2.50;;
73599;SDS011;61877;48.246;9.220;2023-02-03T10:26:27;7.05;;;2.38;;
73599;SDS011;61877;48.246;9.220;2023-02-03T10:28:54;6.10;;;2.15;;
73599;SDS011;61877;48.246;9.220;2023-02-03T10:31:23;5.32;;;2.30;;
73599;SDS011;61877;48.246;9.220;2023-02-03T10:33:57;6.97;;;2.55;;
73599;SDS011;61877;48.246;9.220;2023-02-03T10:36:32;7.30;;;2.40;;
73599;SDS011;61877;48.246;9.220;2023-02-03T10:39:11;5.75;;;2.40;;
73599;SDS011;61877;48.246;9.220;2023-02-03T10:41:45;6.00;;;2.45;;
73599;SDS011;61877;48.246;9.220;2023-02-03T10:44:12;6.07;;;2.50;;
73599;SDS011;61877;48.246;9.220;2023-02-03T10:46:40;6.18;;;2.13;;
73599;SDS011;61877;48.246;9.220;2023-02-03T10:49:06;6.38;;;2.53;;
73599;SDS011;61877;48.246;9.220;2023-02-03T10:51:36;5.50;;;2.22;;
73599;SDS011;61877;48.246;9.220;2023-02-03T10:54:05;5.45;;;2.10;;
73599;SDS011;61877;48.246;9.220;2023-02-03T10:56:52;6.17;;;2.53;;
73599;SDS011;61877;48.246;9.220;2023-02-03T10:59:26;6.60;;;1.85;;
73599;SDS011;61877;48.246;9.220;2023-02-03T11:01:55;5.70;;;2.30;;
73599;SDS011;61877;48.246;9.220;2023-02-03T11:04:28;5.82;;;2.15;;
73599;SDS011;61877;48.246;9.220;2023-02-03T11:06:58;6.60;;;2.47;;
73599;SDS011;61877;48.246;9.220;2023-02-03T11:09:28;9.00;;;3.20;;
73599;SDS011;61877;48.246;9.220;2023-02-03T11:12:03;6.70;;;2.33;;
73599;SDS011;61877;48.246;9.220;2023-02-03T11:14:35;7.20;;;3.00;;
73599;SDS011;61877;48.246;9.220;2023-02-03T11:17:07;5.93;;;2.40;;
73599;SDS011;61877;48.246;9.220;2023-02-03T11:19:34;6.85;;;2.42;;
73599;SDS011;61877;48.246;9.220;2023-02-03T11:22:04;5.70;;;2.17;;
73599;SDS011;61877;48.246;9.220;2023-02-03T11:24:32;5.40;;;2.17;;
73599;SDS011;61877;48.246;9.220;2023-02-03T11:27:05;5.85;;;2.30;;
73599;SDS011;61877;48.246;9.220;2023-02-03T11:29:34;5.30;;;2.17;;
73599;SDS011;61877;48.246;9.220;2023-02-03T11:32:03;8.90;;;3.65;;
73599;SDS011;61877;48.246;9.220;2023-02-03T11:34:45;5.20;;;1.90;;
73599;SDS011;61877;48.246;9.220;2023-02-03T11:37:36;5.78;;;2.15;;
73599;SDS011;61877;48.246;9.220;2023-02-03T11:43:04;11.63;;;5.97;;
73599;SDS011;61877;48.246;9.220;2023-02-03T11:45:39;5.25;;;2.00;;
73599;SDS011;61877;48.246;9.220;2023-02-03T11:48:16;5.33;;;1.90;;
73599;SDS011;61877;48.246;9.220;2023-02-03T11:50:50;5.20;;;1.85;;
73599;SDS011;61877;48.246;9.220;2023-02-03T11:53:28;6.45;;;2.10;;
73599;SDS011;61877;48.246;9.220;2023-02-03T11:56:08;6.78;;;2.30;;
73599;SDS011;61877;48.246;9.220;2023-02-03T11:58:47;5.35;;;2.00;;
73599;SDS011;61877;48.246;9.220;2023-02-03T12:01:46;6.27;;;2.10;;
73599;SDS011;61877;48.246;9.220;2023-02-03T12:04:42;5.80;;;2.20;;
73599;SDS011;61877;48.246;9.220;2023-02-03T12:07:31;6.07;;;2.30;;
73599;SDS011;61877;48.246;9.220;2023-02-03T12:10:15;5.47;;;2.30;;
73599;SDS011;61877;48.246;9.220;2023-02-03T12:12:54;6.03;;;2.05;;
73599;SDS011;61877;48.246;9.220;2023-02-03T12:15:35;5.13;;;2.03;;
73599;SDS011;61877;48.246;9.220;2023-02-03T12:18:38;5.85;;;2.28;;
73599;SDS011;61877;48.246;9.220;2023-02-03T12:21:25;5.68;;;2.00;;
73599;SDS011;61877;48.246;9.220;2023-02-03T12:24:01;6.38;;;1.90;;
73599;SDS011;61877;48.246;9.220;2023-02-03T12:26:37;5.70;;;2.33;;
73599;SDS011;61877;48.246;9.220;2023-02-03T12:29:13;5.83;;;2.10;;
73599;SDS011;61877;48.246;9.220;2023-02-03T12:31:44;6.07;;;2.22;;
73599;SDS011;61877;48.246;9.220;2023-02-03T12:34:16;5.63;;;2.33;;
73599;SDS011;61877;48.246;9.220;2023-02-03T12:36:48;5.68;;;2.38;;
73599;SDS011;61877;48.246;9.220;2023-02-03T12:39:22;6.00;;;2.05;;
73599;SDS011;61877;48.246;9.220;2023-02-03T12:41:55;5.67;;;2.30;;
73599;SDS011;61877;48.246;9.220;2023-02-03T12:44:30;5.50;;;1.90;;
73599;SDS011;61877;48.246;9.220;2023-02-03T12:47:21;5.28;;;2.00;;
73599;SDS011;61877;48.246;9.220;2023-02-03T12:49:55;5.60;;;2.50;;
73599;SDS011;61877;48.246;9.220;2023-02-03T12:52:30;5.35;;;2.30;;
73599;SDS011;61877;48.246;9.220;2023-02-03T12:55:02;5.77;;;2.30;;
73599;SDS011;61877;48.246;9.220;2023-02-03T12:57:43;5.00;;;2.05;;
73599;SDS011;61877;48.246;9.220;2023-02-03T13:00:23;5.40;;;2.25;;
73599;SDS011;61877;48.246;9.220;2023-02-03T13:03:01;6.13;;;2.40;;
73599;SDS011;61877;48.246;9.220;2023-02-03T13:05:37;5.35;;;2.20;;
73599;SDS011;61877;48.246;9.220;2023-02-03T13:08:10;6.50;;;2.60;;
73599;SDS011;61877;48.246;9.220;2023-02-03T13:10:47;5.57;;;2.20;;
73599;SDS011;61877;48.246;9.220;2023-02-03T13:13:22;4.90;;;1.90;;
73599;SDS011;61877;48.246;9.220;2023-02-03T13:15:55;5.38;;;2.00;;
73599;SDS011;61877;48.246;9.220;2023-02-03T13:18:24;5.20;;;2.10;;
73599;SDS011;61877;48.246;9.220;2023-02-03T13:20:53;6.13;;;2.47;;
73599;SDS011;61877;48.246;9.220;2023-02-03T13:23:20;5.47;;;2.30;;
73599;SDS011;61877;48.246;9.220;2023-02-03T13:25:50;5.18;;;1.92;;
73599;SDS011;61877;48.246;9.220;2023-02-03T13:28:36;5.63;;;2.42;;
73599;SDS011;61877;48.246;9.220;2023-02-03T13:31:20;5.40;;;2.17;;
73599;SDS011;61877;48.246;9.220;2023-02-03T13:34:03;5.40;;;2.50;;
73599;SDS011;61877;48.246;9.220;2023-02-03T13:42:54;5.57;;;2.17;;
73599;SDS011;61877;48.246;9.220;2023-02-03T13:45:27;5.40;;;2.13;;
73599;SDS011;61877;48.246;9.220;2023-02-03T13:47:56;5.40;;;2.10;;
73599;SDS011;61877;48.246;9.220;2023-02-03T13:50:36;5.50;;;2.40;;
73599;SDS011;61877;48.246;9.220;2023-02-03T13:53:03;5.60;;;2.10;;
73599;SDS011;61877;48.246;9.220;2023-02-03T13:55:34;5.68;;;2.40;;
73599;SDS011;61877;48.246;9.220;2023-02-03T13:58:02;5.30;;;2.20;;
73599;SDS011;61877;48.246;9.220;2023-02-03T14:03:42;6.05;;;2.63;;
73599;SDS011;61877;48.246;9.220;2023-02-03T14:09:21;5.18;;;2.10;;
73599;SDS011;61877;48.246;9.220;2023-02-03T14:11:49;5.32;;;2.22;;
73599;SDS011;61877;48.246;9.220;2023-02-03T14:14:56;5.70;;;2.30;;
73599;SDS011;61877;48.246;9.220;2023-02-03T14:18:00;5.60;;;2.30;;
73599;SDS011;61877;48.246;9.220;2023-02-03T14:26:46;5.32;;;2.05;;
73599;SDS011;61877;48.246;9.220;2023-02-03T14:29:29;5.20;;;2.27;;
73599;SDS011;61877;48.246;9.220;2023-02-03T14:31:58;5.15;;;2.08;;
73599;SDS011;61877;48.246;9.220;2023-02-03T14:34:32;5.55;;;2.50;;
73599;SDS011;61877;48.246;9.220;2023-02-03T14:37:12;5.47;;;2.30;;
73599;SDS011;61877;48.246;9.220;2023-02-03T14:39:55;6.57;;;2.50;;
73599;SDS011;61877;48.246;9.220;2023-02-03T14:48:51;6.00;;;2.17;;
73599;SDS011;61877;48.246;9.220;2023-02-03T14:51:49;6.90;;;3.28;;
73599;SDS011;61877;48.246;9.220;2023-02-03T14:54:48;6.15;;;2.80;;
73599;SDS011;61877;48.246;9.220;2023-02-03T14:57:28;5.50;;;2.40;;
73599;SDS011;61877;48.246;9.220;2023-02-03T15:00:05;6.40;;;2.60;;
73599;SDS011;61877;48.246;9.220;2023-02-03T15:02:38;6.07;;;2.30;;
73599;SDS011;61877;48.246;9.220;2023-02-03T15:05:39;7.03;;;2.80;;
73599;SDS011;61877;48.246;9.220;2023-02-03T15:10:59;7.00;;;3.10;;
73599;SDS011;61877;48.246;9.220;2023-02-03T15:13:38;7.68;;;3.45;;
73599;SDS011;61877;48.246;9.220;2023-02-03T15:16:11;5.95;;;2.70;;
73599;SDS011;61877;48.246;9.220;2023-02-03T15:18:42;5.45;;;2.30;;
73599;SDS011;61877;48.246;9.220;2023-02-03T15:21:12;5.60;;;2.50;;
73599;SDS011;61877;48.246;9.220;2023-02-03T15:23:42;5.95;;;2.40;;
73599;SDS011;61877;48.246;9.220;2023-02-03T15:26:10;6.70;;;2.80;;
73599;SDS011;61877;48.246;9.220;2023-02-03T15:28:37;6.17;;;2.40;;
73599;SDS011;61877;48.246;9.220;2023-02-03T15:31:04;5.60;;;2.30;;
73599;SDS011;61877;48.246;9.220;2023-02-03T15:33:38;6.20;;;2.92;;
73599;SDS011;61877;48.246;9.220;2023-02-03T15:36:05;6.47;;;2.93;;
73599;SDS011;61877;48.246;9.220;2023-02-03T15:38:38;6.40;;;2.53;;
73599;SDS011;61877;48.246;9.220;2023-02-03T15:41:10;5.68;;;2.17;;
73599;SDS011;61877;48.246;9.220;2023-02-03T15:43:41;6.18;;;2.80;;
73599;SDS011;61877;48.246;9.220;2023-02-03T15:46:13;6.13;;;2.83;;
73599;SDS011;61877;48.246;9.220;2023-02-03T15:48:43;6.90;;;3.10;;
73599;SDS011;61877;48.246;9.220;2023-02-03T15:51:13;6.72;;;3.10;;
73599;SDS011;61877;48.246;9.220;2023-02-03T15:53:45;6.65;;;2.60;;
73599;SDS011;61877;48.246;9.220;2023-02-03T15:56:18;6.13;;;2.53;;
73599;SDS011;61877;48.246;9.220;2023-02-03T15:58:47;5.75;;;2.55;;
73599;SDS011;61877;48.246;9.220;2023-02-03T16:01:13;6.30;;;2.70;;